sensor_id;sensor_type;location;lat;lon;timestamp;pressure;altitude;pressure_sealevel;temperature;humidity
76337;BME280;65157;50.082;18.178;2022-12-16T00:03:40;98610.86;;;-1.06;82.40
76337;BME280;65157;50.082;18.178;2022-12-16T00:06:08;98608.59;;;-1.01;82.66
76337;BME280;65157;50.082;18.178;2022-12-16T00:08:36;98608.23;;;-1.00;82.25
76337;BME280;65157;50.082;18.178;2022-12-16T00:11:04;98599.91;;;-1.01;82.30
76337;BME280;65157;50.082;18.178;2022-12-16T00:13:32;98597.16;;;-1.02;82.41
76337;BME280;65157;50.082;18.178;2022-12-16T00:16:04;98596.65;;;-1.05;82.37
76337;BME280;65157;50.082;18.178;2022-12-16T00:18:31;98603.11;;;-1.11;82.42
76337;BME280;65157;50.082;18.178;2022-12-16T00:20:58;98591.73;;;-1.18;82.60
76337;BME280;65157;50.082;18.178;2022-12-16T00:23:25;98586.38;;;-1.20;82.60
76337;BME280;65157;50.082;18.178;2022-12-16T00:25:52;98583.77;;;-1.21;82.74
76337;BME280;65157;50.082;18.178;2022-12-16T00:28:19;98582.89;;;-1.17;82.72
76337;BME280;65157;50.082;18.178;2022-12-16T00:30:50;98578.36;;;-1.12;82.64
76337;BME280;65157;50.082;18.178;2022-12-16T00:33:18;98577.46;;;-1.08;82.42
76337;BME280;65157;50.082;18.178;2022-12-16T00:35:46;98577.45;;;-1.07;82.44
76337;BME280;65157;50.082;18.178;2022-12-16T00:38:14;98581.25;;;-1.06;82.64
76337;BME280;65157;50.082;18.178;2022-12-16T00:40:40;98567.77;;;-1.08;82.66
76337;BME280;65157;50.082;18.178;2022-12-16T00:43:07;98558.23;;;-1.08;82.74
76337;BME280;65157;50.082;18.178;2022-12-16T00:45:34;98566.73;;;-1.09;82.51
76337;BME280;65157;50.082;18.178;2022-12-16T00:48:01;98574.54;;;-1.10;82.50
76337;BME280;65157;50.082;18.178;2022-12-16T00:50:27;98569.83;;;-1.06;82.62
76337;BME280;65157;50.082;18.178;2022-12-16T00:52:54;98561.66;;;-1.03;82.51
76337;BME280;65157;50.082;18.178;2022-12-16T00:55:20;98562.33;;;-0.99;82.50
76337;BME280;65157;50.082;18.178;2022-12-16T00:57:47;98557.46;;;-0.98;82.64
76337;BME280;65157;50.082;18.178;2022-12-16T01:00:15;98544.48;;;-0.96;82.49
76337;BME280;65157;50.082;18.178;2022-12-16T01:02:44;98536.52;;;-0.96;82.54
76337;BME280;65157;50.082;18.178;2022-12-16T01:05:13;98529.06;;;-0.98;82.62
76337;BME280;65157;50.082;18.178;2022-12-16T01:07:41;98524.60;;;-1.01;82.44
76337;BME280;65157;50.082;18.178;2022-12-16T01:10:08;98523.92;;;-1.05;82.53
76337;BME280;65157;50.082;18.178;2022-12-16T01:12:36;98532.77;;;-1.06;82.33
76337;BME280;65157;50.082;18.178;2022-12-16T01:15:06;98535.54;;;-1.05;82.58
76337;BME280;65157;50.082;18.178;2022-12-16T01:17:33;98530.67;;;-1.04;82.47
76337;BME280;65157;50.082;18.178;2022-12-16T01:20:01;98530.48;;;-1.01;82.38
76337;BME280;65157;50.082;18.178;2022-12-16T01:22:29;98532.38;;;-1.00;82.61
76337;BME280;65157;50.082;18.178;2022-12-16T01:24:58;98523.72;;;-1.00;82.45
76337;BME280;65157;50.082;18.178;2022-12-16T01:27:25;98511.59;;;-0.99;82.62
76337;BME280;65157;50.082;18.178;2022-12-16T01:29:52;98504.30;;;-0.99;82.37
76337;BME280;65157;50.082;18.178;2022-12-16T01:32:19;98504.69;;;-1.02;82.46
76337;BME280;65157;50.082;18.178;2022-12-16T01:34:50;98501.75;;;-1.03;82.46
76337;BME280;65157;50.082;18.178;2022-12-16T01:37:17;98502.11;;;-1.04;82.33
76337;BME280;65157;50.082;18.178;2022-12-16T01:39:44;98504.37;;;-1.05;82.24
76337;BME280;65157;50.082;18.178;2022-12-16T01:42:20;98503.31;;;-1.03;82.35
76337;BME280;65157;50.082;18.178;2022-12-16T01:44:50;98500.86;;;-1.00;82.37
76337;BME280;65157;50.082;18.178;2022-12-16T01:47:19;98498.77;;;-0.97;82.66
76337;BME280;65157;50.082;18.178;2022-12-16T01:49:58;98488.19;;;-0.97;82.33
76337;BME280;65157;50.082;18.178;2022-12-16T01:52:33;98478.67;;;-0.98;82.34
76337;BME280;65157;50.082;18.178;2022-12-16T01:55:08;98485.11;;;-1.02;82.45
76337;BME280;65157;50.082;18.178;2022-12-16T02:00:30;98469.79;;;-1.12;82.80
76337;BME280;65157;50.082;18.178;2022-12-16T02:02:57;98460.95;;;-1.11;82.55
76337;BME280;65157;50.082;18.178;2022-12-16T02:05:25;98455.41;;;-1.09;82.52
76337;BME280;65157;50.082;18.178;2022-12-16T02:19:09;98435.94;;;-1.02;82.65
76337;BME280;65157;50.082;18.178;2022-12-16T02:34:12;98421.70;;;-0.98;83.11
76337;BME280;65157;50.082;18.178;2022-12-16T02:39:24;98424.48;;;-0.99;82.91
76337;BME280;65157;50.082;18.178;2022-12-16T02:42:01;98422.59;;;-1.01;82.68
76337;BME280;65157;50.082;18.178;2022-12-16T02:45:19;98412.59;;;-1.05;82.77
76337;BME280;65157;50.082;18.178;2022-12-16T02:47:25;98403.23;;;-1.05;82.91
76337;BME280;65157;50.082;18.178;2022-12-16T02:49:52;98398.38;;;-1.05;83.03
76337;BME280;65157;50.082;18.178;2022-12-16T02:52:23;98398.02;;;-1.03;82.75
76337;BME280;65157;50.082;18.178;2022-12-16T02:54:55;98395.24;;;-1.02;82.82
76337;BME280;65157;50.082;18.178;2022-12-16T03:00:06;98393.84;;;-1.01;82.90
76337;BME280;65157;50.082;18.178;2022-12-16T03:05:25;98391.08;;;-1.02;82.79
76337;BME280;65157;50.082;18.178;2022-12-16T03:07:56;98389.73;;;-1.05;82.86
76337;BME280;65157;50.082;18.178;2022-12-16T03:10:28;98388.92;;;-1.12;82.73
76337;BME280;65157;50.082;18.178;2022-12-16T03:12:57;98384.11;;;-1.15;82.86
76337;BME280;65157;50.082;18.178;2022-12-16T03:15:28;98381.17;;;-1.17;82.80
76337;BME280;65157;50.082;18.178;2022-12-16T03:17:58;98385.38;;;-1.22;82.89
76337;BME280;65157;50.082;18.178;2022-12-16T03:20:32;98375.50;;;-1.20;83.07
76337;BME280;65157;50.082;18.178;2022-12-16T03:23:03;98377.03;;;-1.18;83.09
76337;BME280;65157;50.082;18.178;2022-12-16T03:25:33;98375.82;;;-1.17;83.00
76337;BME280;65157;50.082;18.178;2022-12-16T03:34:23;98372.90;;;-1.19;83.13
76337;BME280;65157;50.082;18.178;2022-12-16T03:36:53;98374.30;;;-1.21;83.15
76337;BME280;65157;50.082;18.178;2022-12-16T03:39:23;98371.69;;;-1.19;83.26
76337;BME280;65157;50.082;18.178;2022-12-16T03:41:53;98367.84;;;-1.16;83.12
76337;BME280;65157;50.082;18.178;2022-12-16T03:44:22;98363.61;;;-1.08;83.26
76337;BME280;65157;50.082;18.178;2022-12-16T03:46:51;98363.23;;;-1.03;83.26
76337;BME280;65157;50.082;18.178;2022-12-16T03:49:18;98356.13;;;-1.04;83.02
76337;BME280;65157;50.082;18.178;2022-12-16T03:51:44;98353.02;;;-1.05;83.00
76337;BME280;65157;50.082;18.178;2022-12-16T03:54:11;98361.19;;;-1.07;83.09
76337;BME280;65157;50.082;18.178;2022-12-16T03:56:38;98372.83;;;-1.10;82.98
76337;BME280;65157;50.082;18.178;2022-12-16T03:59:04;98378.25;;;-1.18;83.10
76337;BME280;65157;50.082;18.178;2022-12-16T04:01:31;98375.55;;;-1.25;83.15
76337;BME280;65157;50.082;18.178;2022-12-16T04:03:57;98372.28;;;-1.28;83.33
76337;BME280;65157;50.082;18.178;2022-12-16T04:06:24;98368.49;;;-1.29;83.27
76337;BME280;65157;50.082;18.178;2022-12-16T04:08:51;98369.35;;;-1.28;83.25
76337;BME280;65157;50.082;18.178;2022-12-16T04:11:17;98370.06;;;-1.30;83.26
76337;BME280;65157;50.082;18.178;2022-12-16T04:14:02;98376.97;;;-1.28;83.30
76337;BME280;65157;50.082;18.178;2022-12-16T04:16:48;98373.50;;;-1.28;83.41
76337;BME280;65157;50.082;18.178;2022-12-16T04:19:36;98375.27;;;-1.31;83.26
76337;BME280;65157;50.082;18.178;2022-12-16T04:22:25;98372.41;;;-1.41;83.34
76337;BME280;65157;50.082;18.178;2022-12-16T04:25:15;98374.71;;;-1.46;83.42
76337;BME280;65157;50.082;18.178;2022-12-16T04:27:43;98382.70;;;-1.49;83.56
76337;BME280;65157;50.082;18.178;2022-12-16T04:30:13;98378.54;;;-1.48;83.61
76337;BME280;65157;50.082;18.178;2022-12-16T04:32:53;98379.36;;;-1.44;83.72
76337;BME280;65157;50.082;18.178;2022-12-16T04:35:39;98383.48;;;-1.40;83.74
76337;BME280;65157;50.082;18.178;2022-12-16T04:38:25;98379.65;;;-1.38;83.52
76337;BME280;65157;50.082;18.178;2022-12-16T04:41:11;98369.27;;;-1.39;83.53
76337;BME280;65157;50.082;18.178;2022-12-16T04:43:56;98369.48;;;-1.43;83.46
76337;BME280;65157;50.082;18.178;2022-12-16T04:46:42;98368.63;;;-1.44;83.76
76337;BME280;65157;50.082;18.178;2022-12-16T04:49:28;98370.41;;;-1.49;83.38
76337;BME280;65157;50.082;18.178;2022-12-16T04:52:14;98372.17;;;-1.52;83.56
76337;BME280;65157;50.082;18.178;2022-12-16T04:55:00;98370.95;;;-1.52;83.77
76337;BME280;65157;50.082;18.178;2022-12-16T04:57:58;98368.16;;;-1.51;83.58
76337;BME280;65157;50.082;18.178;2022-12-16T05:00:45;98369.86;;;-1.45;83.62
76337;BME280;65157;50.082;18.178;2022-12-16T05:03:32;98363.25;;;-1.43;83.84
76337;BME280;65157;50.082;18.178;2022-12-16T05:06:18;98358.19;;;-1.38;83.60
76337;BME280;65157;50.082;18.178;2022-12-16T05:09:06;98352.83;;;-1.37;83.75
76337;BME280;65157;50.082;18.178;2022-12-16T05:11:52;98346.45;;;-1.41;83.63
76337;BME280;65157;50.082;18.178;2022-12-16T05:14:37;98347.90;;;-1.47;83.63
76337;BME280;65157;50.082;18.178;2022-12-16T05:17:23;98350.02;;;-1.53;83.69
76337;BME280;65157;50.082;18.178;2022-12-16T05:20:08;98356.40;;;-1.50;83.66
76337;BME280;65157;50.082;18.178;2022-12-16T05:22:55;98350.50;;;-1.48;83.67
76337;BME280;65157;50.082;18.178;2022-12-16T05:25:41;98343.20;;;-1.46;83.85
76337;BME280;65157;50.082;18.178;2022-12-16T05:28:27;98341.63;;;-1.43;83.77
76337;BME280;65157;50.082;18.178;2022-12-16T05:31:13;98334.70;;;-1.41;83.50
76337;BME280;65157;50.082;18.178;2022-12-16T05:33:58;98335.42;;;-1.47;83.40
76337;BME280;65157;50.082;18.178;2022-12-16T05:36:43;98332.52;;;-1.51;83.65
76337;BME280;65157;50.082;18.178;2022-12-16T05:39:29;98330.33;;;-1.56;83.38
76337;BME280;65157;50.082;18.178;2022-12-16T05:42:14;98328.85;;;-1.66;83.50
76337;BME280;65157;50.082;18.178;2022-12-16T05:45:00;98322.66;;;-1.68;83.60
76337;BME280;65157;50.082;18.178;2022-12-16T05:47:47;98321.23;;;-1.65;83.86
76337;BME280;65157;50.082;18.178;2022-12-16T05:50:33;98316.71;;;-1.62;83.74
76337;BME280;65157;50.082;18.178;2022-12-16T05:53:18;98319.27;;;-1.59;83.64
76337;BME280;65157;50.082;18.178;2022-12-16T05:56:04;98317.55;;;-1.60;83.75
76337;BME280;65157;50.082;18.178;2022-12-16T05:58:49;98315.14;;;-1.61;83.63
76337;BME280;65157;50.082;18.178;2022-12-16T06:01:34;98316.59;;;-1.68;83.69
76337;BME280;65157;50.082;18.178;2022-12-16T06:04:20;98320.77;;;-1.72;83.77
76337;BME280;65157;50.082;18.178;2022-12-16T06:07:05;98323.88;;;-1.70;83.81
76337;BME280;65157;50.082;18.178;2022-12-16T06:09:50;98315.08;;;-1.73;83.49
76337;BME280;65157;50.082;18.178;2022-12-16T06:12:38;98320.95;;;-1.73;83.71
76337;BME280;65157;50.082;18.178;2022-12-16T06:15:24;98324.73;;;-1.68;83.51
76337;BME280;65157;50.082;18.178;2022-12-16T06:18:09;98328.32;;;-1.64;83.74
76337;BME280;65157;50.082;18.178;2022-12-16T06:20:55;98332.14;;;-1.66;83.53
76337;BME280;65157;50.082;18.178;2022-12-16T06:23:40;98332.52;;;-1.68;83.68
76337;BME280;65157;50.082;18.178;2022-12-16T06:26:25;98326.45;;;-1.67;83.65
76337;BME280;65157;50.082;18.178;2022-12-16T06:29:11;98320.39;;;-1.68;83.47
76337;BME280;65157;50.082;18.178;2022-12-16T06:31:56;98314.05;;;-1.74;83.55
76337;BME280;65157;50.082;18.178;2022-12-16T06:34:41;98322.13;;;-1.68;83.32
76337;BME280;65157;50.082;18.178;2022-12-16T06:37:27;98324.20;;;-1.68;83.42
76337;BME280;65157;50.082;18.178;2022-12-16T06:40:12;98327.34;;;-1.71;83.39
76337;BME280;65157;50.082;18.178;2022-12-16T06:42:57;98326.17;;;-1.77;83.49
76337;BME280;65157;50.082;18.178;2022-12-16T06:45:43;98317.72;;;-1.80;83.46
76337;BME280;65157;50.082;18.178;2022-12-16T06:48:28;98316.05;;;-1.86;83.59
76337;BME280;65157;50.082;18.178;2022-12-16T06:51:14;98315.73;;;-1.91;83.60
76337;BME280;65157;50.082;18.178;2022-12-16T06:53:59;98320.92;;;-1.89;83.71
76337;BME280;65157;50.082;18.178;2022-12-16T06:56:45;98322.60;;;-1.85;83.53
76337;BME280;65157;50.082;18.178;2022-12-16T06:59:30;98325.73;;;-1.87;83.52
76337;BME280;65157;50.082;18.178;2022-12-16T07:02:15;98318.45;;;-1.85;83.79
76337;BME280;65157;50.082;18.178;2022-12-16T07:05:02;98314.63;;;-1.82;83.66
76337;BME280;65157;50.082;18.178;2022-12-16T07:07:49;98308.23;;;-1.82;83.55
76337;BME280;65157;50.082;18.178;2022-12-16T07:10:35;98299.05;;;-1.81;83.82
76337;BME280;65157;50.082;18.178;2022-12-16T07:13:35;98293.55;;;-1.84;83.40
76337;BME280;65157;50.082;18.178;2022-12-16T07:16:20;98294.46;;;-1.90;83.30
76337;BME280;65157;50.082;18.178;2022-12-16T07:19:05;98299.48;;;-1.91;83.39
76337;BME280;65157;50.082;18.178;2022-12-16T07:21:51;98309.87;;;-1.92;83.34
76337;BME280;65157;50.082;18.178;2022-12-16T07:24:36;98313.14;;;-1.90;83.55
76337;BME280;65157;50.082;18.178;2022-12-16T07:27:21;98313.34;;;-1.94;83.16
76337;BME280;65157;50.082;18.178;2022-12-16T07:30:07;98323.24;;;-1.99;83.21
76337;BME280;65157;50.082;18.178;2022-12-16T07:32:52;98327.63;;;-2.10;83.37
76337;BME280;65157;50.082;18.178;2022-12-16T07:35:41;98331.78;;;-2.09;83.55
76337;BME280;65157;50.082;18.178;2022-12-16T07:38:28;98341.42;;;-2.05;83.46
76337;BME280;65157;50.082;18.178;2022-12-16T07:41:13;98351.95;;;-2.02;83.46
76337;BME280;65157;50.082;18.178;2022-12-16T07:43:59;98360.30;;;-2.09;83.40
76337;BME280;65157;50.082;18.178;2022-12-16T07:46:44;98364.31;;;-2.15;83.38
76337;BME280;65157;50.082;18.178;2022-12-16T07:49:30;98360.89;;;-2.19;83.66
76337;BME280;65157;50.082;18.178;2022-12-16T07:52:15;98360.70;;;-2.20;83.62
76337;BME280;65157;50.082;18.178;2022-12-16T07:55:00;98363.65;;;-2.19;83.56
76337;BME280;65157;50.082;18.178;2022-12-16T07:57:51;98362.23;;;-2.14;83.60
76337;BME280;65157;50.082;18.178;2022-12-16T08:00:37;98370.48;;;-2.07;83.63
76337;BME280;65157;50.082;18.178;2022-12-16T08:03:22;98369.23;;;-2.00;83.59
76337;BME280;65157;50.082;18.178;2022-12-16T08:06:07;98370.57;;;-1.94;83.62
76337;BME280;65157;50.082;18.178;2022-12-16T08:08:53;98377.15;;;-1.96;83.65
76337;BME280;65157;50.082;18.178;2022-12-16T08:11:39;98379.42;;;-1.98;83.38
76337;BME280;65157;50.082;18.178;2022-12-16T08:14:25;98375.15;;;-2.04;83.72
76337;BME280;65157;50.082;18.178;2022-12-16T08:17:10;98373.05;;;-2.02;83.53
76337;BME280;65157;50.082;18.178;2022-12-16T08:19:55;98372.70;;;-2.00;83.50
76337;BME280;65157;50.082;18.178;2022-12-16T08:22:40;98372.18;;;-2.00;83.51
76337;BME280;65157;50.082;18.178;2022-12-16T08:25:26;98379.42;;;-1.98;83.64
76337;BME280;65157;50.082;18.178;2022-12-16T08:28:11;98382.56;;;-2.00;83.43
76337;BME280;65157;50.082;18.178;2022-12-16T08:30:56;98380.16;;;-2.04;83.41
76337;BME280;65157;50.082;18.178;2022-12-16T08:33:41;98380.70;;;-2.10;83.68
76337;BME280;65157;50.082;18.178;2022-12-16T08:36:26;98389.90;;;-2.15;83.63
76337;BME280;65157;50.082;18.178;2022-12-16T08:39:12;98401.33;;;-2.19;83.75
76337;BME280;65157;50.082;18.178;2022-12-16T08:41:57;98405.98;;;-2.17;83.48
76337;BME280;65157;50.082;18.178;2022-12-16T08:44:42;98411.34;;;-2.18;83.66
76337;BME280;65157;50.082;18.178;2022-12-16T08:47:27;98417.39;;;-2.15;83.65
76337;BME280;65157;50.082;18.178;2022-12-16T08:50:13;98417.21;;;-2.15;83.67
76337;BME280;65157;50.082;18.178;2022-12-16T08:52:58;98422.02;;;-2.10;83.64
76337;BME280;65157;50.082;18.178;2022-12-16T08:55:44;98424.95;;;-2.11;83.67
76337;BME280;65157;50.082;18.178;2022-12-16T08:58:29;98423.55;;;-2.06;83.58
76337;BME280;65157;50.082;18.178;2022-12-16T09:01:14;98431.83;;;-2.03;83.63
76337;BME280;65157;50.082;18.178;2022-12-16T09:03:59;98439.11;;;-2.05;83.53
76337;BME280;65157;50.082;18.178;2022-12-16T09:06:44;98445.48;;;-2.04;83.77
76337;BME280;65157;50.082;18.178;2022-12-16T09:09:30;98446.01;;;-2.00;83.48
76337;BME280;65157;50.082;18.178;2022-12-16T09:12:15;98452.61;;;-2.09;82.44
76337;BME280;65157;50.082;18.178;2022-12-16T09:15:01;98453.75;;;-2.30;82.49
76337;BME280;65157;50.082;18.178;2022-12-16T09:17:53;98462.63;;;-2.48;82.80
76337;BME280;65157;50.082;18.178;2022-12-16T09:20:39;98466.10;;;-2.57;83.14
76337;BME280;65157;50.082;18.178;2022-12-16T09:23:24;98468.88;;;-2.62;83.09
76337;BME280;65157;50.082;18.178;2022-12-16T09:26:10;98474.05;;;-2.63;83.05
76337;BME280;65157;50.082;18.178;2022-12-16T09:28:55;98479.77;;;-2.69;83.29
76337;BME280;65157;50.082;18.178;2022-12-16T09:31:40;98484.79;;;-2.74;83.50
76337;BME280;65157;50.082;18.178;2022-12-16T09:34:25;98491.02;;;-2.84;83.79
76337;BME280;65157;50.082;18.178;2022-12-16T09:37:11;98496.03;;;-2.89;83.71
76337;BME280;65157;50.082;18.178;2022-12-16T09:39:57;98498.63;;;-2.92;83.99
76337;BME280;65157;50.082;18.178;2022-12-16T09:43:00;98496.55;;;-2.93;84.05
76337;BME280;65157;50.082;18.178;2022-12-16T09:52:15;98490.86;;;-2.86;84.34
76337;BME280;65157;50.082;18.178;2022-12-16T09:55:03;98490.16;;;-2.84;84.24
76337;BME280;65157;50.082;18.178;2022-12-16T09:57:50;98479.95;;;-2.72;84.48
76337;BME280;65157;50.082;18.178;2022-12-16T10:00:35;98474.06;;;-2.64;84.09
76337;BME280;65157;50.082;18.178;2022-12-16T10:03:28;98479.41;;;-2.61;84.13
76337;BME280;65157;50.082;18.178;2022-12-16T10:13:19;98475.41;;;-2.49;83.40
76337;BME280;65157;50.082;18.178;2022-12-16T10:15:50;98475.23;;;-2.46;83.55
76337;BME280;65157;50.082;18.178;2022-12-16T10:18:59;98477.27;;;-2.38;83.37
76337;BME280;65157;50.082;18.178;2022-12-16T10:22:00;98473.80;;;-2.35;82.95
76337;BME280;65157;50.082;18.178;2022-12-16T10:27:54;98456.11;;;-2.17;83.20
76337;BME280;65157;50.082;18.178;2022-12-16T10:30:43;98458.30;;;-2.04;82.31
76337;BME280;65157;50.082;18.178;2022-12-16T10:33:29;98463.17;;;-2.12;81.90
76337;BME280;65157;50.082;18.178;2022-12-16T10:36:17;98466.98;;;-2.15;82.46
76337;BME280;65157;50.082;18.178;2022-12-16T10:39:21;98476.67;;;-2.18;82.09
76337;BME280;65157;50.082;18.178;2022-12-16T10:42:23;98473.60;;;-2.25;82.21
76337;BME280;65157;50.082;18.178;2022-12-16T10:45:18;98464.44;;;-2.26;82.11
76337;BME280;65157;50.082;18.178;2022-12-16T10:48:05;98457.38;;;-2.30;81.92
76337;BME280;65157;50.082;18.178;2022-12-16T10:50:52;98436.70;;;-2.47;82.18
76337;BME280;65157;50.082;18.178;2022-12-16T10:53:37;98453.74;;;-2.31;82.26
76337;BME280;65157;50.082;18.178;2022-12-16T10:59:14;98451.46;;;-2.23;81.97
76337;BME280;65157;50.082;18.178;2022-12-16T11:02:02;98461.84;;;-2.23;81.73
76337;BME280;65157;50.082;18.178;2022-12-16T11:04:49;98455.98;;;-2.27;82.35
76337;BME280;65157;50.082;18.178;2022-12-16T11:10:37;98463.20;;;-2.18;82.05
76337;BME280;65157;50.082;18.178;2022-12-16T11:13:35;98465.94;;;-2.12;82.05
76337;BME280;65157;50.082;18.178;2022-12-16T11:16:26;98473.52;;;-2.08;82.07
76337;BME280;65157;50.082;18.178;2022-12-16T11:19:27;98482.67;;;-2.05;81.81
76337;BME280;65157;50.082;18.178;2022-12-16T11:22:16;98482.17;;;-2.07;81.67
76337;BME280;65157;50.082;18.178;2022-12-16T11:25:17;98485.30;;;-2.13;81.50
76337;BME280;65157;50.082;18.178;2022-12-16T11:28:05;98486.39;;;-2.24;81.73
76337;BME280;65157;50.082;18.178;2022-12-16T11:31:02;98496.77;;;-2.32;81.63
76337;BME280;65157;50.082;18.178;2022-12-16T11:33:49;98498.54;;;-2.42;82.23
76337;BME280;65157;50.082;18.178;2022-12-16T11:36:37;98498.04;;;-2.47;82.20
76337;BME280;65157;50.082;18.178;2022-12-16T11:39:25;98495.28;;;-2.50;82.43
76337;BME280;65157;50.082;18.178;2022-12-16T11:42:20;98495.11;;;-2.53;82.21
76337;BME280;65157;50.082;18.178;2022-12-16T11:45:13;98493.20;;;-2.48;82.33
76337;BME280;65157;50.082;18.178;2022-12-16T11:48:28;98489.90;;;-2.41;82.04
76337;BME280;65157;50.082;18.178;2022-12-16T11:51:18;98495.09;;;-2.44;82.00
76337;BME280;65157;50.082;18.178;2022-12-16T11:54:14;98492.85;;;-2.47;82.63
76337;BME280;65157;50.082;18.178;2022-12-16T11:57:02;98491.81;;;-2.48;82.36
76337;BME280;65157;50.082;18.178;2022-12-16T11:59:52;98504.44;;;-2.50;82.26
76337;BME280;65157;50.082;18.178;2022-12-16T12:06:20;98517.22;;;-2.52;82.40
76337;BME280;65157;50.082;18.178;2022-12-16T12:09:04;98519.46;;;-2.49;82.48
76337;BME280;65157;50.082;18.178;2022-12-16T12:12:01;98517.57;;;-2.52;82.60
76337;BME280;65157;50.082;18.178;2022-12-16T12:21:58;98520.95;;;-2.28;82.16
76337;BME280;65157;50.082;18.178;2022-12-16T12:24:42;98514.55;;;-2.20;82.00
76337;BME280;65157;50.082;18.178;2022-12-16T12:27:48;98517.81;;;-2.15;81.81
76337;BME280;65157;50.082;18.178;2022-12-16T12:30:54;98516.92;;;-2.10;81.96
76337;BME280;65157;50.082;18.178;2022-12-16T12:37:09;98531.60;;;-2.05;81.76
76337;BME280;65157;50.082;18.178;2022-12-16T12:40:59;98528.48;;;-2.06;81.61
76337;BME280;65157;50.082;18.178;2022-12-16T12:56:27;98544.06;;;-2.11;82.04
76337;BME280;65157;50.082;18.178;2022-12-16T13:00:17;98561.73;;;-2.15;81.62
76337;BME280;65157;50.082;18.178;2022-12-16T13:02:53;98566.76;;;-2.32;81.42
76337;BME280;65157;50.082;18.178;2022-12-16T13:05:42;98581.81;;;-2.41;81.71
76337;BME280;65157;50.082;18.178;2022-12-16T13:08:44;98591.33;;;-2.46;82.07
76337;BME280;65157;50.082;18.178;2022-12-16T13:11:38;98598.77;;;-2.55;82.47
76337;BME280;65157;50.082;18.178;2022-12-16T13:17:19;98604.46;;;-2.62;82.75
76337;BME280;65157;50.082;18.178;2022-12-16T13:23:48;98591.52;;;-2.75;82.89
76337;BME280;65157;50.082;18.178;2022-12-16T13:26:34;98592.90;;;-2.79;82.90
76337;BME280;65157;50.082;18.178;2022-12-16T13:29:27;98594.27;;;-2.80;82.87
76337;BME280;65157;50.082;18.178;2022-12-16T13:32:21;98602.92;;;-2.86;83.13
76337;BME280;65157;50.082;18.178;2022-12-16T13:38:16;98623.64;;;-2.88;83.20
76337;BME280;65157;50.082;18.178;2022-12-16T13:41:06;98630.71;;;-2.86;83.12
76337;BME280;65157;50.082;18.178;2022-12-16T13:44:12;98631.75;;;-2.81;83.47
76337;BME280;65157;50.082;18.178;2022-12-16T13:46:57;98628.64;;;-2.78;83.39
76337;BME280;65157;50.082;18.178;2022-12-16T13:50:34;98625.19;;;-2.74;83.36
76337;BME280;65157;50.082;18.178;2022-12-16T13:53:24;98628.64;;;-2.73;83.27
76337;BME280;65157;50.082;18.178;2022-12-16T13:56:13;98626.91;;;-2.69;83.33
76337;BME280;65157;50.082;18.178;2022-12-16T13:59:05;98627.61;;;-2.65;83.22
76337;BME280;65157;50.082;18.178;2022-12-16T14:01:55;98629.68;;;-2.62;83.09
76337;BME280;65157;50.082;18.178;2022-12-16T14:04:51;98636.23;;;-2.60;83.18
76337;BME280;65157;50.082;18.178;2022-12-16T14:07:38;98649.90;;;-2.56;83.26
76337;BME280;65157;50.082;18.178;2022-12-16T14:10:29;98653.88;;;-2.62;83.19
76337;BME280;65157;50.082;18.178;2022-12-16T14:13:32;98652.65;;;-2.65;83.18
76337;BME280;65157;50.082;18.178;2022-12-16T14:25:43;98694.77;;;-2.84;83.74
76337;BME280;65157;50.082;18.178;2022-12-16T14:31:36;98704.06;;;-2.94;83.84
76337;BME280;65157;50.082;18.178;2022-12-16T14:37:18;98719.42;;;-3.00;84.44
76337;BME280;65157;50.082;18.178;2022-12-16T14:40:37;98724.21;;;-3.07;84.69
76337;BME280;65157;50.082;18.178;2022-12-16T14:43:23;98728.36;;;-3.11;84.70
76337;BME280;65157;50.082;18.178;2022-12-16T14:46:29;98731.64;;;-3.12;84.91
76337;BME280;65157;50.082;18.178;2022-12-16T14:49:26;98736.12;;;-3.11;84.76
76337;BME280;65157;50.082;18.178;2022-12-16T14:52:24;98736.81;;;-3.10;84.86
76337;BME280;65157;50.082;18.178;2022-12-16T14:55:11;98742.33;;;-3.13;84.89
76337;BME280;65157;50.082;18.178;2022-12-16T14:58:08;98752.67;;;-3.15;84.83
76337;BME280;65157;50.082;18.178;2022-12-16T15:01:02;98753.38;;;-3.14;84.83
76337;BME280;65157;50.082;18.178;2022-12-16T15:03:49;98750.61;;;-3.14;85.03
76337;BME280;65157;50.082;18.178;2022-12-16T15:06:43;98751.45;;;-3.17;85.10
76337;BME280;65157;50.082;18.178;2022-12-16T15:09:33;98754.02;;;-3.20;85.46
76337;BME280;65157;50.082;18.178;2022-12-16T15:12:23;98758.85;;;-3.22;85.28
76337;BME280;65157;50.082;18.178;2022-12-16T15:15:16;98765.06;;;-3.22;85.44
76337;BME280;65157;50.082;18.178;2022-12-16T15:18:03;98767.67;;;-3.19;85.62
76337;BME280;65157;50.082;18.178;2022-12-16T15:20:53;98769.04;;;-3.21;85.51
76337;BME280;65157;50.082;18.178;2022-12-16T15:23:41;98774.71;;;-3.25;85.93
76337;BME280;65157;50.082;18.178;2022-12-16T15:26:33;98781.09;;;-3.27;85.77
76337;BME280;65157;50.082;18.178;2022-12-16T15:29:30;98785.42;;;-3.24;85.57
76337;BME280;65157;50.082;18.178;2022-12-16T15:35:31;98788.20;;;-3.21;85.60
76337;BME280;65157;50.082;18.178;2022-12-16T15:38:32;98780.77;;;-3.22;85.59
76337;BME280;65157;50.082;18.178;2022-12-16T15:41:31;98778.19;;;-3.23;85.79
76337;BME280;65157;50.082;18.178;2022-12-16T15:44:19;98785.61;;;-3.22;85.70
76337;BME280;65157;50.082;18.178;2022-12-16T15:47:32;98789.25;;;-3.17;85.66
76337;BME280;65157;50.082;18.178;2022-12-16T15:50:21;98791.68;;;-3.15;85.67
76337;BME280;65157;50.082;18.178;2022-12-16T15:56:40;98807.69;;;-3.22;85.61
76337;BME280;65157;50.082;18.178;2022-12-16T15:59:29;98810.44;;;-3.24;85.76
76337;BME280;65157;50.082;18.178;2022-12-16T16:02:19;98811.13;;;-3.24;85.77
76337;BME280;65157;50.082;18.178;2022-12-16T16:05:21;98815.11;;;-3.21;85.61
76337;BME280;65157;50.082;18.178;2022-12-16T16:08:10;98815.14;;;-3.17;85.63
76337;BME280;65157;50.082;18.178;2022-12-16T16:10:55;98817.20;;;-3.16;85.71
76337;BME280;65157;50.082;18.178;2022-12-16T16:13:40;98817.05;;;-3.14;85.59
76337;BME280;65157;50.082;18.178;2022-12-16T16:16:25;98820.67;;;-3.15;85.52
76337;BME280;65157;50.082;18.178;2022-12-16T16:19:19;98823.23;;;-3.19;85.74
76337;BME280;65157;50.082;18.178;2022-12-16T16:22:16;98828.07;;;-3.19;85.66